sensor_id;sensor_type;location;lat;lon;timestamp;P1;durP1;ratioP1;P2;durP2;ratioP2
2488;SDS011;1255;48.716;9.124;2024-01-30T00:01:12;5.15;;;2.75;;
2488;SDS011;1255;48.716;9.124;2024-01-30T00:03:38;4.07;;;2.75;;
2488;SDS011;1255;48.716;9.124;2024-01-30T00:06:05;4.38;;;3.13;;
2488;SDS011;1255;48.716;9.124;2024-01-30T00:08:34;2.92;;;2.55;;
2488;SDS011;1255;48.716;9.124;2024-01-30T00:11:01;4.25;;;3.25;;
2488;SDS011;1255;48.716;9.124;2024-01-30T00:13:27;6.05;;;2.60;;
2488;SDS011;1255;48.716;9.124;2024-01-30T00:15:54;3.47;;;2.88;;
2488;SDS011;1255;48.716;9.124;2024-01-30T00:18:21;2.60;;;2.40;;
2488;SDS011;1255;48.716;9.124;2024-01-30T00:20:47;4.97;;;2.75;;
2488;SDS011;1255;48.716;9.124;2024-01-30T00:23:14;3.05;;;2.85;;
2488;SDS011;1255;48.716;9.124;2024-01-30T00:25:42;3.80;;;2.78;;
2488;SDS011;1255;48.716;9.124;2024-01-30T00:28:09;2.88;;;2.55;;
2488;SDS011;1255;48.716;9.124;2024-01-30T00:30:36;6.55;;;3.75;;
2488;SDS011;1255;48.716;9.124;2024-01-30T00:33:03;3.67;;;2.80;;
2488;SDS011;1255;48.716;9.124;2024-01-30T00:35:30;5.13;;;3.28;;
2488;SDS011;1255;48.716;9.124;2024-01-30T00:37:57;4.65;;;3.50;;
2488;SDS011;1255;48.716;9.124;2024-01-30T00:40:23;3.03;;;2.70;;
2488;SDS011;1255;48.716;9.124;2024-01-30T00:42:52;4.03;;;3.08;;
2488;SDS011;1255;48.716;9.124;2024-01-30T00:45:18;4.95;;;3.17;;
2488;SDS011;1255;48.716;9.124;2024-01-30T00:47:45;4.10;;;3.13;;
2488;SDS011;1255;48.716;9.124;2024-01-30T00:50:12;4.45;;;2.95;;
2488;SDS011;1255;48.716;9.124;2024-01-30T00:52:38;3.40;;;3.10;;
2488;SDS011;1255;48.716;9.124;2024-01-30T00:55:06;4.65;;;3.30;;
2488;SDS011;1255;48.716;9.124;2024-01-30T00:57:33;4.28;;;3.13;;
2488;SDS011;1255;48.716;9.124;2024-01-30T01:00:01;5.80;;;2.75;;
2488;SDS011;1255;48.716;9.124;2024-01-30T01:02:31;4.50;;;3.00;;
2488;SDS011;1255;48.716;9.124;2024-01-30T01:04:58;5.22;;;3.13;;
2488;SDS011;1255;48.716;9.124;2024-01-30T01:07:24;8.60;;;3.38;;
2488;SDS011;1255;48.716;9.124;2024-01-30T01:09:51;3.88;;;2.42;;
2488;SDS011;1255;48.716;9.124;2024-01-30T01:12:18;4.15;;;2.85;;
2488;SDS011;1255;48.716;9.124;2024-01-30T01:14:45;5.28;;;2.90;;
2488;SDS011;1255;48.716;9.124;2024-01-30T01:17:13;4.30;;;2.97;;
2488;SDS011;1255;48.716;9.124;2024-01-30T01:19:39;5.57;;;3.10;;
2488;SDS011;1255;48.716;9.124;2024-01-30T01:22:06;3.35;;;2.90;;
2488;SDS011;1255;48.716;9.124;2024-01-30T01:24:33;3.08;;;2.40;;
2488;SDS011;1255;48.716;9.124;2024-01-30T01:27:00;4.45;;;4.05;;
2488;SDS011;1255;48.716;9.124;2024-01-30T01:29:26;8.93;;;3.17;;
2488;SDS011;1255;48.716;9.124;2024-01-30T01:31:54;4.22;;;2.65;;
2488;SDS011;1255;48.716;9.124;2024-01-30T01:34:22;4.60;;;3.28;;
2488;SDS011;1255;48.716;9.124;2024-01-30T01:36:49;7.18;;;2.95;;
2488;SDS011;1255;48.716;9.124;2024-01-30T01:39:16;3.45;;;2.67;;
2488;SDS011;1255;48.716;9.124;2024-01-30T01:41:43;4.53;;;3.08;;
2488;SDS011;1255;48.716;9.124;2024-01-30T01:44:10;3.05;;;2.78;;
2488;SDS011;1255;48.716;9.124;2024-01-30T01:46:37;4.35;;;2.80;;
2488;SDS011;1255;48.716;9.124;2024-01-30T01:49:04;4.88;;;3.08;;
2488;SDS011;1255;48.716;9.124;2024-01-30T01:51:33;2.75;;;2.53;;
2488;SDS011;1255;48.716;9.124;2024-01-30T01:54:02;5.63;;;3.17;;
2488;SDS011;1255;48.716;9.124;2024-01-30T01:56:30;4.25;;;2.65;;
2488;SDS011;1255;48.716;9.124;2024-01-30T01:58:59;4.70;;;2.78;;
2488;SDS011;1255;48.716;9.124;2024-01-30T02:01:30;3.10;;;2.63;;
2488;SDS011;1255;48.716;9.124;2024-01-30T02:03:58;4.60;;;2.58;;
2488;SDS011;1255;48.716;9.124;2024-01-30T02:06:25;4.00;;;3.00;;
2488;SDS011;1255;48.716;9.124;2024-01-30T02:08:53;3.85;;;2.55;;
2488;SDS011;1255;48.716;9.124;2024-01-30T02:11:22;3.35;;;2.72;;
2488;SDS011;1255;48.716;9.124;2024-01-30T02:13:49;5.25;;;2.97;;
2488;SDS011;1255;48.716;9.124;2024-01-30T02:16:16;3.38;;;2.80;;
2488;SDS011;1255;48.716;9.124;2024-01-30T02:18:43;3.33;;;2.78;;
2488;SDS011;1255;48.716;9.124;2024-01-30T02:21:13;3.55;;;2.63;;
2488;SDS011;1255;48.716;9.124;2024-01-30T02:23:40;5.70;;;3.30;;
2488;SDS011;1255;48.716;9.124;2024-01-30T02:26:08;4.63;;;3.05;;
2488;SDS011;1255;48.716;9.124;2024-01-30T02:28:36;3.33;;;2.67;;
2488;SDS011;1255;48.716;9.124;2024-01-30T02:31:03;3.80;;;3.17;;
2488;SDS011;1255;48.716;9.124;2024-01-30T02:33:29;3.03;;;2.45;;
2488;SDS011;1255;48.716;9.124;2024-01-30T02:35:56;3.70;;;2.38;;
2488;SDS011;1255;48.716;9.124;2024-01-30T02:38:24;2.88;;;2.67;;
2488;SDS011;1255;48.716;9.124;2024-01-30T02:40:51;5.30;;;2.97;;
2488;SDS011;1255;48.716;9.124;2024-01-30T02:43:18;2.88;;;2.55;;
2488;SDS011;1255;48.716;9.124;2024-01-30T02:45:45;4.70;;;3.30;;
2488;SDS011;1255;48.716;9.124;2024-01-30T02:48:12;3.88;;;2.83;;
2488;SDS011;1255;48.716;9.124;2024-01-30T02:50:38;3.00;;;2.53;;
2488;SDS011;1255;48.716;9.124;2024-01-30T02:53:05;6.35;;;2.80;;
2488;SDS011;1255;48.716;9.124;2024-01-30T02:55:33;4.30;;;3.10;;
2488;SDS011;1255;48.716;9.124;2024-01-30T02:58:00;3.90;;;2.95;;
2488;SDS011;1255;48.716;9.124;2024-01-30T03:00:26;4.55;;;2.90;;
2488;SDS011;1255;48.716;9.124;2024-01-30T03:02:53;2.55;;;2.35;;
2488;SDS011;1255;48.716;9.124;2024-01-30T03:05:20;2.45;;;2.25;;
2488;SDS011;1255;48.716;9.124;2024-01-30T03:07:47;3.70;;;2.30;;
2488;SDS011;1255;48.716;9.124;2024-01-30T03:10:13;3.85;;;3.00;;
2488;SDS011;1255;48.716;9.124;2024-01-30T03:12:41;2.85;;;2.30;;
2488;SDS011;1255;48.716;9.124;2024-01-30T03:15:08;3.78;;;2.65;;
2488;SDS011;1255;48.716;9.124;2024-01-30T03:17:35;2.63;;;2.22;;
2488;SDS011;1255;48.716;9.124;2024-01-30T03:20:02;5.40;;;2.85;;
2488;SDS011;1255;48.716;9.124;2024-01-30T03:22:31;2.63;;;2.17;;
2488;SDS011;1255;48.716;9.124;2024-01-30T03:24:57;2.97;;;2.75;;
2488;SDS011;1255;48.716;9.124;2024-01-30T03:27:24;2.83;;;2.50;;
2488;SDS011;1255;48.716;9.124;2024-01-30T03:29:52;2.90;;;2.60;;
2488;SDS011;1255;48.716;9.124;2024-01-30T03:32:19;2.85;;;2.55;;
2488;SDS011;1255;48.716;9.124;2024-01-30T03:34:45;3.88;;;2.83;;
2488;SDS011;1255;48.716;9.124;2024-01-30T03:37:12;2.60;;;2.40;;
2488;SDS011;1255;48.716;9.124;2024-01-30T03:39:39;3.20;;;2.70;;
2488;SDS011;1255;48.716;9.124;2024-01-30T03:42:06;2.70;;;1.85;;
2488;SDS011;1255;48.716;9.124;2024-01-30T03:44:32;3.90;;;3.00;;
2488;SDS011;1255;48.716;9.124;2024-01-30T03:47:00;7.25;;;2.55;;
2488;SDS011;1255;48.716;9.124;2024-01-30T03:49:27;3.00;;;2.80;;
2488;SDS011;1255;48.716;9.124;2024-01-30T03:51:54;2.20;;;1.90;;
2488;SDS011;1255;48.716;9.124;2024-01-30T03:54:21;6.07;;;2.80;;
2488;SDS011;1255;48.716;9.124;2024-01-30T03:56:47;4.05;;;2.80;;
2488;SDS011;1255;48.716;9.124;2024-01-30T03:59:14;2.00;;;1.90;;
2488;SDS011;1255;48.716;9.124;2024-01-30T04:01:42;2.88;;;2.67;;
2488;SDS011;1255;48.716;9.124;2024-01-30T04:04:10;3.38;;;2.80;;
2488;SDS011;1255;48.716;9.124;2024-01-30T04:06:37;3.38;;;2.95;;
2488;SDS011;1255;48.716;9.124;2024-01-30T04:09:04;2.85;;;2.55;;
2488;SDS011;1255;48.716;9.124;2024-01-30T04:11:30;5.70;;;3.00;;
2488;SDS011;1255;48.716;9.124;2024-01-30T04:13:58;2.75;;;2.55;;
2488;SDS011;1255;48.716;9.124;2024-01-30T04:16:24;3.85;;;2.60;;
2488;SDS011;1255;48.716;9.124;2024-01-30T04:18:51;3.45;;;2.40;;
2488;SDS011;1255;48.716;9.124;2024-01-30T04:21:20;2.75;;;2.25;;
2488;SDS011;1255;48.716;9.124;2024-01-30T04:23:46;3.95;;;2.80;;
2488;SDS011;1255;48.716;9.124;2024-01-30T04:26:13;3.13;;;2.30;;
2488;SDS011;1255;48.716;9.124;2024-01-30T04:28:41;2.97;;;2.45;;
2488;SDS011;1255;48.716;9.124;2024-01-30T04:31:07;3.30;;;3.00;;
2488;SDS011;1255;48.716;9.124;2024-01-30T04:33:35;2.88;;;2.38;;
2488;SDS011;1255;48.716;9.124;2024-01-30T04:36:02;4.78;;;3.30;;
2488;SDS011;1255;48.716;9.124;2024-01-30T04:38:31;2.58;;;2.20;;
2488;SDS011;1255;48.716;9.124;2024-01-30T04:40:58;3.50;;;2.67;;
2488;SDS011;1255;48.716;9.124;2024-01-30T04:43:24;4.10;;;2.35;;
2488;SDS011;1255;48.716;9.124;2024-01-30T04:45:52;2.60;;;2.35;;
2488;SDS011;1255;48.716;9.124;2024-01-30T04:48:19;3.28;;;2.60;;
2488;SDS011;1255;48.716;9.124;2024-01-30T04:50:45;2.65;;;2.35;;
2488;SDS011;1255;48.716;9.124;2024-01-30T04:53:12;2.70;;;2.40;;
2488;SDS011;1255;48.716;9.124;2024-01-30T04:55:40;4.45;;;2.63;;
2488;SDS011;1255;48.716;9.124;2024-01-30T04:58:07;7.13;;;2.90;;
2488;SDS011;1255;48.716;9.124;2024-01-30T05:00:33;3.83;;;2.47;;
2488;SDS011;1255;48.716;9.124;2024-01-30T05:03:00;5.15;;;3.05;;
2488;SDS011;1255;48.716;9.124;2024-01-30T05:05:27;4.22;;;3.42;;
2488;SDS011;1255;48.716;9.124;2024-01-30T05:07:53;3.67;;;2.97;;
2488;SDS011;1255;48.716;9.124;2024-01-30T05:10:20;2.90;;;2.63;;
2488;SDS011;1255;48.716;9.124;2024-01-30T05:12:48;4.20;;;3.05;;
2488;SDS011;1255;48.716;9.124;2024-01-30T05:15:15;2.88;;;2.50;;
2488;SDS011;1255;48.716;9.124;2024-01-30T05:17:42;2.83;;;2.50;;
2488;SDS011;1255;48.716;9.124;2024-01-30T05:20:09;3.78;;;2.58;;
2488;SDS011;1255;48.716;9.124;2024-01-30T05:22:37;3.97;;;3.15;;
2488;SDS011;1255;48.716;9.124;2024-01-30T05:25:09;2.72;;;2.53;;
2488;SDS011;1255;48.716;9.124;2024-01-30T05:27:36;3.67;;;2.80;;
2488;SDS011;1255;48.716;9.124;2024-01-30T05:30:05;2.65;;;2.38;;
2488;SDS011;1255;48.716;9.124;2024-01-30T05:32:33;2.67;;;2.47;;
2488;SDS011;1255;48.716;9.124;2024-01-30T05:34:59;4.15;;;3.28;;
2488;SDS011;1255;48.716;9.124;2024-01-30T05:37:26;3.00;;;2.80;;
2488;SDS011;1255;48.716;9.124;2024-01-30T05:39:53;3.35;;;2.65;;
2488;SDS011;1255;48.716;9.124;2024-01-30T05:42:20;3.78;;;2.78;;
2488;SDS011;1255;48.716;9.124;2024-01-30T05:44:46;3.10;;;2.53;;
2488;SDS011;1255;48.716;9.124;2024-01-30T05:47:15;3.22;;;2.92;;
2488;SDS011;1255;48.716;9.124;2024-01-30T05:49:42;3.30;;;2.83;;
2488;SDS011;1255;48.716;9.124;2024-01-30T05:52:08;2.65;;;2.35;;
2488;SDS011;1255;48.716;9.124;2024-01-30T05:54:35;3.95;;;2.78;;
2488;SDS011;1255;48.716;9.124;2024-01-30T05:57:02;3.15;;;2.38;;
2488;SDS011;1255;48.716;9.124;2024-01-30T05:59:29;5.05;;;2.75;;
2488;SDS011;1255;48.716;9.124;2024-01-30T06:01:56;2.40;;;2.08;;
2488;SDS011;1255;48.716;9.124;2024-01-30T06:04:24;5.43;;;2.90;;
2488;SDS011;1255;48.716;9.124;2024-01-30T06:06:51;3.50;;;2.30;;
2488;SDS011;1255;48.716;9.124;2024-01-30T06:09:17;4.97;;;3.50;;
2488;SDS011;1255;48.716;9.124;2024-01-30T06:11:44;5.32;;;3.40;;
2488;SDS011;1255;48.716;9.124;2024-01-30T06:14:11;2.28;;;2.08;;
2488;SDS011;1255;48.716;9.124;2024-01-30T06:16:38;5.65;;;3.15;;
2488;SDS011;1255;48.716;9.124;2024-01-30T06:19:05;5.75;;;3.42;;
2488;SDS011;1255;48.716;9.124;2024-01-30T06:21:33;5.00;;;2.47;;
2488;SDS011;1255;48.716;9.124;2024-01-30T06:24:01;4.90;;;4.00;;
2488;SDS011;1255;48.716;9.124;2024-01-30T06:26:28;5.68;;;2.80;;
2488;SDS011;1255;48.716;9.124;2024-01-30T06:28:55;2.95;;;2.58;;
2488;SDS011;1255;48.716;9.124;2024-01-30T06:31:22;3.47;;;2.67;;
2488;SDS011;1255;48.716;9.124;2024-01-30T06:33:48;3.70;;;3.40;;
2488;SDS011;1255;48.716;9.124;2024-01-30T06:36:16;2.33;;;2.00;;
2488;SDS011;1255;48.716;9.124;2024-01-30T06:38:44;4.18;;;2.83;;
2488;SDS011;1255;48.716;9.124;2024-01-30T06:41:11;3.92;;;2.88;;
2488;SDS011;1255;48.716;9.124;2024-01-30T06:43:37;2.13;;;1.92;;
2488;SDS011;1255;48.716;9.124;2024-01-30T06:46:04;3.30;;;2.60;;
2488;SDS011;1255;48.716;9.124;2024-01-30T06:48:31;2.72;;;2.53;;
2488;SDS011;1255;48.716;9.124;2024-01-30T06:50:57;2.50;;;2.30;;
2488;SDS011;1255;48.716;9.124;2024-01-30T06:53:24;3.75;;;2.50;;
2488;SDS011;1255;48.716;9.124;2024-01-30T06:55:53;2.75;;;2.55;;
2488;SDS011;1255;48.716;9.124;2024-01-30T06:58:19;3.15;;;2.80;;
2488;SDS011;1255;48.716;9.124;2024-01-30T07:00:46;3.92;;;2.83;;
2488;SDS011;1255;48.716;9.124;2024-01-30T07:03:13;3.47;;;2.55;;
2488;SDS011;1255;48.716;9.124;2024-01-30T07:05:40;4.07;;;3.35;;
2488;SDS011;1255;48.716;9.124;2024-01-30T07:08:06;3.88;;;3.45;;
2488;SDS011;1255;48.716;9.124;2024-01-30T07:10:33;3.75;;;3.33;;
2488;SDS011;1255;48.716;9.124;2024-01-30T07:13:01;3.08;;;2.70;;
2488;SDS011;1255;48.716;9.124;2024-01-30T07:15:31;4.78;;;2.92;;
2488;SDS011;1255;48.716;9.124;2024-01-30T07:17:58;3.00;;;2.70;;
2488;SDS011;1255;48.716;9.124;2024-01-30T07:20:25;3.65;;;2.97;;
2488;SDS011;1255;48.716;9.124;2024-01-30T07:22:52;3.38;;;2.38;;
2488;SDS011;1255;48.716;9.124;2024-01-30T07:25:19;5.03;;;2.47;;
2488;SDS011;1255;48.716;9.124;2024-01-30T07:27:46;5.07;;;3.30;;
2488;SDS011;1255;48.716;9.124;2024-01-30T07:30:14;6.97;;;3.05;;
2488;SDS011;1255;48.716;9.124;2024-01-30T07:32:42;3.35;;;2.80;;
2488;SDS011;1255;48.716;9.124;2024-01-30T07:35:09;6.05;;;3.20;;
2488;SDS011;1255;48.716;9.124;2024-01-30T07:37:36;4.22;;;3.00;;
2488;SDS011;1255;48.716;9.124;2024-01-30T07:40:03;3.95;;;3.38;;
2488;SDS011;1255;48.716;9.124;2024-01-30T07:42:31;3.63;;;3.28;;
2488;SDS011;1255;48.716;9.124;2024-01-30T07:44:58;5.30;;;3.53;;
2488;SDS011;1255;48.716;9.124;2024-01-30T07:47:26;4.57;;;3.60;;
2488;SDS011;1255;48.716;9.124;2024-01-30T07:49:53;3.15;;;2.63;;
2488;SDS011;1255;48.716;9.124;2024-01-30T07:52:20;6.00;;;3.80;;
2488;SDS011;1255;48.716;9.124;2024-01-30T07:54:46;4.32;;;3.00;;
2488;SDS011;1255;48.716;9.124;2024-01-30T07:57:14;4.95;;;3.53;;
2488;SDS011;1255;48.716;9.124;2024-01-30T07:59:41;3.53;;;3.20;;
2488;SDS011;1255;48.716;9.124;2024-01-30T08:02:09;4.88;;;3.85;;
2488;SDS011;1255;48.716;9.124;2024-01-30T08:04:39;6.25;;;4.03;;
2488;SDS011;1255;48.716;9.124;2024-01-30T08:07:06;5.15;;;3.60;;
2488;SDS011;1255;48.716;9.124;2024-01-30T08:09:33;5.47;;;3.83;;
2488;SDS011;1255;48.716;9.124;2024-01-30T08:12:00;7.47;;;5.55;;
2488;SDS011;1255;48.716;9.124;2024-01-30T08:14:26;7.15;;;4.65;;
2488;SDS011;1255;48.716;9.124;2024-01-30T08:16:53;4.50;;;4.10;;
2488;SDS011;1255;48.716;9.124;2024-01-30T08:19:20;6.45;;;3.70;;
2488;SDS011;1255;48.716;9.124;2024-01-30T08:21:48;6.03;;;4.90;;
2488;SDS011;1255;48.716;9.124;2024-01-30T08:24:15;7.47;;;4.22;;
2488;SDS011;1255;48.716;9.124;2024-01-30T08:26:42;3.95;;;3.55;;
2488;SDS011;1255;48.716;9.124;2024-01-30T08:29:08;8.25;;;4.65;;
2488;SDS011;1255;48.716;9.124;2024-01-30T08:31:35;6.70;;;4.13;;
2488;SDS011;1255;48.716;9.124;2024-01-30T08:34:02;4.63;;;4.22;;
2488;SDS011;1255;48.716;9.124;2024-01-30T08:36:29;5.70;;;4.35;;
2488;SDS011;1255;48.716;9.124;2024-01-30T08:38:57;6.65;;;4.88;;
2488;SDS011;1255;48.716;9.124;2024-01-30T08:41:24;5.20;;;4.05;;
2488;SDS011;1255;48.716;9.124;2024-01-30T08:43:51;7.10;;;3.90;;
2488;SDS011;1255;48.716;9.124;2024-01-30T08:46:19;6.15;;;4.50;;
2488;SDS011;1255;48.716;9.124;2024-01-30T08:48:46;6.53;;;5.10;;
2488;SDS011;1255;48.716;9.124;2024-01-30T08:51:13;5.60;;;4.72;;
2488;SDS011;1255;48.716;9.124;2024-01-30T08:53:40;6.70;;;5.03;;
2488;SDS011;1255;48.716;9.124;2024-01-30T08:56:08;4.43;;;3.92;;
2488;SDS011;1255;48.716;9.124;2024-01-30T08:58:35;8.77;;;4.63;;
2488;SDS011;1255;48.716;9.124;2024-01-30T09:01:02;7.35;;;4.80;;
2488;SDS011;1255;48.716;9.124;2024-01-30T09:03:30;6.70;;;5.03;;
2488;SDS011;1255;48.716;9.124;2024-01-30T09:05:57;7.45;;;5.30;;
2488;SDS011;1255;48.716;9.124;2024-01-30T09:08:24;13.57;;;6.28;;
2488;SDS011;1255;48.716;9.124;2024-01-30T09:10:50;6.30;;;5.35;;
2488;SDS011;1255;48.716;9.124;2024-01-30T09:13:19;4.90;;;4.40;;
2488;SDS011;1255;48.716;9.124;2024-01-30T09:15:45;7.28;;;5.18;;
2488;SDS011;1255;48.716;9.124;2024-01-30T09:18:12;6.20;;;4.90;;
2488;SDS011;1255;48.716;9.124;2024-01-30T09:20:39;5.38;;;4.88;;
2488;SDS011;1255;48.716;9.124;2024-01-30T09:23:05;8.25;;;4.78;;
2488;SDS011;1255;48.716;9.124;2024-01-30T09:25:32;5.45;;;4.80;;
2488;SDS011;1255;48.716;9.124;2024-01-30T09:27:59;6.00;;;4.63;;
2488;SDS011;1255;48.716;9.124;2024-01-30T09:30:27;6.45;;;4.20;;
2488;SDS011;1255;48.716;9.124;2024-01-30T09:32:54;5.90;;;5.20;;
2488;SDS011;1255;48.716;9.124;2024-01-30T09:35:21;5.37;;;4.77;;
2488;SDS011;1255;48.716;9.124;2024-01-30T09:37:48;6.13;;;5.00;;
2488;SDS011;1255;48.716;9.124;2024-01-30T09:40:14;7.03;;;5.27;;
2488;SDS011;1255;48.716;9.124;2024-01-30T09:42:44;7.67;;;4.90;;
2488;SDS011;1255;48.716;9.124;2024-01-30T09:45:13;5.20;;;4.70;;
2488;SDS011;1255;48.716;9.124;2024-01-30T09:47:42;7.73;;;5.03;;
2488;SDS011;1255;48.716;9.124;2024-01-30T09:50:10;5.40;;;4.57;;
2488;SDS011;1255;48.716;9.124;2024-01-30T09:52:37;5.53;;;4.13;;
2488;SDS011;1255;48.716;9.124;2024-01-30T09:55:05;9.00;;;5.47;;
2488;SDS011;1255;48.716;9.124;2024-01-30T09:57:33;4.60;;;4.17;;
2488;SDS011;1255;48.716;9.124;2024-01-30T10:00:00;4.80;;;3.80;;
2488;SDS011;1255;48.716;9.124;2024-01-30T10:02:28;4.77;;;3.80;;
2488;SDS011;1255;48.716;9.124;2024-01-30T10:04:56;4.97;;;4.13;;
2488;SDS011;1255;48.716;9.124;2024-01-30T10:07:23;4.97;;;3.30;;
2488;SDS011;1255;48.716;9.124;2024-01-30T10:09:50;1.93;;;1.80;;
2488;SDS011;1255;48.716;9.124;2024-01-30T10:12:16;2.63;;;2.40;;
2488;SDS011;1255;48.716;9.124;2024-01-30T10:14:43;2.13;;;1.63;;
2488;SDS011;1255;48.716;9.124;2024-01-30T10:17:10;2.63;;;2.20;;
2488;SDS011;1255;48.716;9.124;2024-01-30T10:19:39;2.30;;;1.87;;
2488;SDS011;1255;48.716;9.124;2024-01-30T10:22:09;2.43;;;1.93;;
2488;SDS011;1255;48.716;9.124;2024-01-30T10:24:35;1.60;;;1.50;;
2488;SDS011;1255;48.716;9.124;2024-01-30T10:27:03;3.43;;;2.43;;
2488;SDS011;1255;48.716;9.124;2024-01-30T10:29:31;2.23;;;2.00;;
2488;SDS011;1255;48.716;9.124;2024-01-30T10:31:58;1.77;;;1.60;;
2488;SDS011;1255;48.716;9.124;2024-01-30T10:34:25;2.10;;;1.75;;
2488;SDS011;1255;48.716;9.124;2024-01-30T10:36:55;2.70;;;1.98;;
2488;SDS011;1255;48.716;9.124;2024-01-30T10:39:28;2.70;;;1.95;;
2488;SDS011;1255;48.716;9.124;2024-01-30T10:41:58;2.25;;;1.70;;
2488;SDS011;1255;48.716;9.124;2024-01-30T10:44:28;1.85;;;1.63;;
2488;SDS011;1255;48.716;9.124;2024-01-30T10:47:03;1.98;;;1.77;;
2488;SDS011;1255;48.716;9.124;2024-01-30T10:49:37;3.92;;;2.00;;
2488;SDS011;1255;48.716;9.124;2024-01-30T10:52:05;3.13;;;2.05;;
2488;SDS011;1255;48.716;9.124;2024-01-30T10:54:35;1.80;;;1.60;;
2488;SDS011;1255;48.716;9.124;2024-01-30T10:57:03;2.47;;;1.65;;
2488;SDS011;1255;48.716;9.124;2024-01-30T10:59:31;1.75;;;1.60;;
2488;SDS011;1255;48.716;9.124;2024-01-30T11:01:59;2.13;;;1.90;;
2488;SDS011;1255;48.716;9.124;2024-01-30T11:04:27;2.57;;;1.80;;
2488;SDS011;1255;48.716;9.124;2024-01-30T11:07:01;2.67;;;2.03;;
2488;SDS011;1255;48.716;9.124;2024-01-30T11:09:29;2.33;;;2.03;;
2488;SDS011;1255;48.716;9.124;2024-01-30T11:11:57;2.63;;;1.60;;
2488;SDS011;1255;48.716;9.124;2024-01-30T11:14:26;2.37;;;1.97;;
2488;SDS011;1255;48.716;9.124;2024-01-30T11:16:56;3.40;;;2.03;;
2488;SDS011;1255;48.716;9.124;2024-01-30T11:19:24;1.60;;;1.30;;
2488;SDS011;1255;48.716;9.124;2024-01-30T11:21:52;1.60;;;1.50;;
2488;SDS011;1255;48.716;9.124;2024-01-30T11:24:19;2.23;;;1.57;;
2488;SDS011;1255;48.716;9.124;2024-01-30T11:26:47;1.77;;;1.40;;
2488;SDS011;1255;48.716;9.124;2024-01-30T11:29:16;2.90;;;2.50;;
2488;SDS011;1255;48.716;9.124;2024-01-30T11:31:51;1.90;;;1.70;;
2488;SDS011;1255;48.716;9.124;2024-01-30T11:34:18;1.60;;;1.50;;
2488;SDS011;1255;48.716;9.124;2024-01-30T11:36:46;1.80;;;1.70;;
2488;SDS011;1255;48.716;9.124;2024-01-30T11:39:20;2.67;;;2.10;;
2488;SDS011;1255;48.716;9.124;2024-01-30T11:41:47;2.17;;;1.60;;
2488;SDS011;1255;48.716;9.124;2024-01-30T11:44:19;2.20;;;1.50;;
2488;SDS011;1255;48.716;9.124;2024-01-30T11:46:46;2.00;;;1.90;;
2488;SDS011;1255;48.716;9.124;2024-01-30T11:49:14;3.23;;;1.20;;
2488;SDS011;1255;48.716;9.124;2024-01-30T11:51:42;1.87;;;1.77;;
2488;SDS011;1255;48.716;9.124;2024-01-30T11:54:09;2.13;;;1.93;;
2488;SDS011;1255;48.716;9.124;2024-01-30T11:56:36;2.03;;;1.83;;
2488;SDS011;1255;48.716;9.124;2024-01-30T11:59:03;2.17;;;1.97;;
2488;SDS011;1255;48.716;9.124;2024-01-30T12:01:31;1.80;;;1.70;;
2488;SDS011;1255;48.716;9.124;2024-01-30T12:03:58;2.17;;;1.87;;
2488;SDS011;1255;48.716;9.124;2024-01-30T12:06:25;4.53;;;1.67;;
2488;SDS011;1255;48.716;9.124;2024-01-30T12:08:56;2.20;;;2.00;;
2488;SDS011;1255;48.716;9.124;2024-01-30T12:11:24;1.57;;;1.40;;
2488;SDS011;1255;48.716;9.124;2024-01-30T12:13:51;2.10;;;1.90;;
2488;SDS011;1255;48.716;9.124;2024-01-30T12:16:19;1.60;;;1.30;;
2488;SDS011;1255;48.716;9.124;2024-01-30T12:18:47;1.37;;;1.27;;
2488;SDS011;1255;48.716;9.124;2024-01-30T12:21:16;2.10;;;1.73;;
2488;SDS011;1255;48.716;9.124;2024-01-30T12:23:43;2.50;;;1.43;;
2488;SDS011;1255;48.716;9.124;2024-01-30T12:26:10;1.90;;;1.80;;
2488;SDS011;1255;48.716;9.124;2024-01-30T12:28:47;2.47;;;1.97;;
2488;SDS011;1255;48.716;9.124;2024-01-30T12:31:14;1.70;;;1.60;;
2488;SDS011;1255;48.716;9.124;2024-01-30T12:33:41;1.67;;;1.57;;
2488;SDS011;1255;48.716;9.124;2024-01-30T12:36:09;1.80;;;1.47;;
2488;SDS011;1255;48.716;9.124;2024-01-30T12:38:37;3.33;;;2.37;;
2488;SDS011;1255;48.716;9.124;2024-01-30T12:41:06;2.97;;;1.80;;
2488;SDS011;1255;48.716;9.124;2024-01-30T12:43:35;3.17;;;1.83;;
2488;SDS011;1255;48.716;9.124;2024-01-30T12:46:02;1.70;;;1.60;;
2488;SDS011;1255;48.716;9.124;2024-01-30T12:48:29;3.43;;;1.83;;
2488;SDS011;1255;48.716;9.124;2024-01-30T12:50:56;3.30;;;1.70;;
2488;SDS011;1255;48.716;9.124;2024-01-30T12:53:24;2.10;;;1.90;;
2488;SDS011;1255;48.716;9.124;2024-01-30T12:55:51;2.03;;;1.83;;
2488;SDS011;1255;48.716;9.124;2024-01-30T12:58:19;2.10;;;1.90;;
2488;SDS011;1255;48.716;9.124;2024-01-30T13:00:46;1.90;;;1.60;;
2488;SDS011;1255;48.716;9.124;2024-01-30T13:03:13;2.47;;;1.77;;
2488;SDS011;1255;48.716;9.124;2024-01-30T13:05:39;1.93;;;1.70;;
2488;SDS011;1255;48.716;9.124;2024-01-30T13:08:06;2.90;;;2.10;;
2488;SDS011;1255;48.716;9.124;2024-01-30T13:10:35;1.63;;;1.40;;
2488;SDS011;1255;48.716;9.124;2024-01-30T13:13:02;1.80;;;1.47;;
2488;SDS011;1255;48.716;9.124;2024-01-30T13:15:28;1.80;;;1.63;;
2488;SDS011;1255;48.716;9.124;2024-01-30T13:17:55;1.80;;;1.70;;
2488;SDS011;1255;48.716;9.124;2024-01-30T13:20:22;2.77;;;1.87;;
2488;SDS011;1255;48.716;9.124;2024-01-30T13:22:48;1.90;;;1.63;;
2488;SDS011;1255;48.716;9.124;2024-01-30T13:25:15;2.13;;;1.80;;
2488;SDS011;1255;48.716;9.124;2024-01-30T13:27:43;2.33;;;1.90;;
2488;SDS011;1255;48.716;9.124;2024-01-30T13:30:10;2.50;;;2.03;;
2488;SDS011;1255;48.716;9.124;2024-01-30T13:32:37;1.93;;;1.60;;
2488;SDS011;1255;48.716;9.124;2024-01-30T13:35:06;2.53;;;2.00;;
2488;SDS011;1255;48.716;9.124;2024-01-30T13:37:34;1.60;;;1.50;;
2488;SDS011;1255;48.716;9.124;2024-01-30T13:40:01;2.60;;;1.60;;
2488;SDS011;1255;48.716;9.124;2024-01-30T13:42:28;5.17;;;2.03;;
2488;SDS011;1255;48.716;9.124;2024-01-30T13:44:56;1.57;;;1.47;;
2488;SDS011;1255;48.716;9.124;2024-01-30T13:47:23;2.33;;;1.90;;
2488;SDS011;1255;48.716;9.124;2024-01-30T13:49:50;1.43;;;1.33;;
2488;SDS011;1255;48.716;9.124;2024-01-30T13:52:18;2.10;;;1.60;;
2488;SDS011;1255;48.716;9.124;2024-01-30T13:54:44;2.27;;;1.87;;
2488;SDS011;1255;48.716;9.124;2024-01-30T13:57:12;2.10;;;1.90;;
2488;SDS011;1255;48.716;9.124;2024-01-30T13:59:40;4.20;;;1.90;;
2488;SDS011;1255;48.716;9.124;2024-01-30T14:02:08;2.90;;;2.20;;
2488;SDS011;1255;48.716;9.124;2024-01-30T14:04:35;1.93;;;1.40;;
2488;SDS011;1255;48.716;9.124;2024-01-30T14:07:02;2.10;;;1.90;;
2488;SDS011;1255;48.716;9.124;2024-01-30T14:09:29;2.83;;;2.00;;
2488;SDS011;1255;48.716;9.124;2024-01-30T14:11:57;2.03;;;1.83;;
2488;SDS011;1255;48.716;9.124;2024-01-30T14:14:24;2.37;;;1.70;;
2488;SDS011;1255;48.716;9.124;2024-01-30T14:16:51;2.50;;;1.60;;
2488;SDS011;1255;48.716;9.124;2024-01-30T14:19:19;2.67;;;1.87;;
2488;SDS011;1255;48.716;9.124;2024-01-30T14:21:46;2.03;;;1.80;;
2488;SDS011;1255;48.716;9.124;2024-01-30T14:24:12;2.00;;;1.80;;
2488;SDS011;1255;48.716;9.124;2024-01-30T14:26:39;2.43;;;2.23;;
2488;SDS011;1255;48.716;9.124;2024-01-30T14:29:06;3.30;;;1.83;;
2488;SDS011;1255;48.716;9.124;2024-01-30T14:31:33;2.93;;;2.03;;
2488;SDS011;1255;48.716;9.124;2024-01-30T14:33:59;6.00;;;1.90;;
2488;SDS011;1255;48.716;9.124;2024-01-30T14:36:28;3.60;;;2.10;;
2488;SDS011;1255;48.716;9.124;2024-01-30T14:38:54;1.93;;;1.57;;
2488;SDS011;1255;48.716;9.124;2024-01-30T14:41:21;1.97;;;1.80;;
2488;SDS011;1255;48.716;9.124;2024-01-30T14:43:48;2.70;;;1.90;;
2488;SDS011;1255;48.716;9.124;2024-01-30T14:46:15;2.57;;;2.10;;
2488;SDS011;1255;48.716;9.124;2024-01-30T14:48:42;4.80;;;2.00;;
2488;SDS011;1255;48.716;9.124;2024-01-30T14:51:09;1.93;;;1.77;;
2488;SDS011;1255;48.716;9.124;2024-01-30T14:53:37;2.10;;;1.90;;
2488;SDS011;1255;48.716;9.124;2024-01-30T14:56:04;3.80;;;2.23;;
2488;SDS011;1255;48.716;9.124;2024-01-30T14:58:31;2.30;;;2.10;;
2488;SDS011;1255;48.716;9.124;2024-01-30T15:00:58;2.00;;;1.80;;
2488;SDS011;1255;48.716;9.124;2024-01-30T15:03:26;5.77;;;2.00;;
2488;SDS011;1255;48.716;9.124;2024-01-30T15:05:54;1.90;;;1.60;;
2488;SDS011;1255;48.716;9.124;2024-01-30T15:08:21;2.60;;;2.00;;
2488;SDS011;1255;48.716;9.124;2024-01-30T15:10:49;2.07;;;1.80;;
2488;SDS011;1255;48.716;9.124;2024-01-30T15:13:16;2.00;;;1.80;;
2488;SDS011;1255;48.716;9.124;2024-01-30T15:15:43;2.27;;;1.90;;